Time;durP1;ratioP1;P1;durP2;ratioP2;P2;SDS_P1;SDS_P2;PMS_P1;PMS_P2;Temp;Humidity;BMP_temperature;BMP_pressure;BME280_temperature;BME280_humidity;BME280_pressure;Samples;Min_cycle;Max_cycle;Signal;HPM_P1;HPM_P2
2022/05/28 00:01:49;;;;;;;8.23;2.20;;;11.10;99.90;;;;;;5029694;28;20053;-71
2022/05/28 00:04:15;;;;;;;12.27;2.20;;;11.00;99.90;;;;;;5028631;28;20048;-70
2022/05/28 00:06:41;;;;;;;9.38;1.95;;;11.00;99.90;;;;;;5039873;28;20109;-70
2022/05/28 00:09:07;;;;;;;8.88;2.20;;;10.90;99.90;;;;;;5029719;28;20049;-70
2022/05/28 00:11:36;;;;;;;10.13;2.97;;;10.90;99.90;;;;;;5029420;28;20525;-70
2022/05/28 00:14:03;;;;;;;8.13;2.53;;;11.00;99.90;;;;;;5028840;28;20056;-70
2022/05/28 00:16:29;;;;;;;11.23;2.53;;;10.90;99.90;;;;;;5046106;28;20060;-70
2022/05/28 00:18:55;;;;;;;11.15;2.20;;;10.90;99.90;;;;;;5046146;28;20037;-70
2022/05/28 00:21:22;;;;;;;10.00;2.22;;;10.80;99.90;;;;;;5028343;28;20050;-70
2022/05/28 00:23:48;;;;;;;10.50;2.22;;;10.70;99.90;;;;;;5027054;28;20111;-70
2022/05/28 00:26:15;;;;;;;9.13;2.15;;;10.90;99.90;;;;;;5048527;28;20056;-70
2022/05/28 00:28:41;;;;;;;12.38;1.98;;;10.70;99.90;;;;;;5028152;28;20097;-70
2022/05/28 00:31:07;;;;;;;12.23;2.35;;;10.50;99.90;;;;;;5011651;28;20127;-70
2022/05/28 00:33:33;;;;;;;9.38;2.40;;;10.70;99.90;;;;;;5028963;28;20072;-70
2022/05/28 00:36:00;;;;;;;8.10;2.15;;;10.70;99.90;;;;;;5028760;28;20053;-70
2022/05/28 00:38:27;;;;;;;10.95;1.83;;;10.70;99.90;;;;;;5028804;28;20033;-70
2022/05/28 00:40:56;;;;;;;8.27;2.00;;;10.50;99.90;;;;;;5029384;28;20061;-70
2022/05/28 00:43:22;;;;;;;9.35;1.88;;;10.50;99.90;;;;;;5028749;28;20126;-70
2022/05/28 00:45:50;;;;;;;11.18;2.42;;;10.40;99.90;;;;;;5027879;28;20056;-70
2022/05/28 00:48:22;;;;;;;13.50;2.50;;;10.50;99.90;;;;;;5027158;28;20278;-70
2022/05/28 00:50:48;;;;;;;13.02;2.17;;;10.40;99.90;;;;;;5027887;28;20049;-71
2022/05/28 00:53:14;;;;;;;10.45;2.38;;;10.40;99.90;;;;;;5028154;28;20128;-70
2022/05/28 00:55:39;;;;;;;11.68;2.05;;;10.50;99.90;;;;;;5028185;28;20104;-70
2022/05/28 00:58:07;;;;;;;8.65;2.08;;;10.30;99.90;;;;;;5046853;28;20033;-70
2022/05/28 01:00:34;;;;;;;11.05;1.90;;;10.30;99.90;;;;;;5046530;28;20053;-70
2022/05/28 01:03:27;;;;;;;20.33;2.67;;;10.30;99.90;;;;;;5030717;28;20085;-70
2022/05/28 01:06:06;;;;;;;10.43;2.03;;;10.20;99.90;;;;;;5023876;28;20103;-70
2022/05/28 01:08:43;;;;;;;12.00;2.10;;;10.20;99.90;;;;;;5046135;28;20081;-70
2022/05/28 01:11:24;;;;;;;7.35;1.90;;;10.20;99.90;;;;;;5028144;28;20304;-70
2022/05/28 01:13:49;;;;;;;7.78;1.75;;;10.10;99.90;;;;;;5045758;28;20107;-70
2022/05/28 01:16:48;;;;;;;7.68;1.80;;;10.00;99.90;;;;;;5040435;28;20461;-70
2022/05/28 01:19:28;;;;;;;9.60;1.85;;;10.00;99.90;;;;;;5027641;28;20049;-70
2022/05/28 01:21:57;;;;;;;12.25;2.20;;;10.00;99.90;;;;;;5045081;28;20069;-70
2022/05/28 01:24:46;;;;;;;11.05;2.33;;;9.90;99.90;;;;;;5043017;28;20442;-70
2022/05/28 01:27:46;;;;;;;8.48;2.40;;;9.90;99.90;;;;;;5027836;28;20053;-70
2022/05/28 01:30:15;;;;;;;14.43;2.33;;;9.90;99.90;;;;;;4948319;29;20162;-70
2022/05/28 01:32:44;;;;;;;6.70;1.70;;;9.80;99.90;;;;;;4950933;29;20111;-70
2022/05/28 01:35:13;;;;;;;7.57;1.92;;;9.80;99.90;;;;;;4934668;29;20075;-70
2022/05/28 01:37:39;;;;;;;10.25;1.98;;;9.80;99.90;;;;;;4964730;28;20050;-70
2022/05/28 01:40:08;;;;;;;13.02;2.28;;;9.70;99.90;;;;;;4929078;29;20052;-71
2022/05/28 01:42:36;;;;;;;9.27;2.60;;;9.60;99.90;;;;;;4930615;29;20112;-70
2022/05/28 01:45:05;;;;;;;10.10;1.77;;;9.70;99.90;;;;;;4949297;29;20066;-71
2022/05/28 01:47:33;;;;;;;8.65;1.88;;;9.60;99.90;;;;;;4949400;29;20079;-70
2022/05/28 01:50:00;;;;;;;10.43;2.08;;;9.50;99.90;;;;;;4934292;29;20056;-70
2022/05/28 01:52:28;;;;;;;11.25;2.10;;;9.60;99.90;;;;;;4932368;29;20079;-71
2022/05/28 01:54:57;;;;;;;10.20;2.05;;;9.40;99.90;;;;;;4933411;29;20051;-70
2022/05/28 01:57:22;;;;;;;13.27;2.35;;;9.70;99.90;;;;;;4962189;28;20058;-70
2022/05/28 01:59:48;;;;;;;8.57;2.35;;;9.50;99.90;;;;;;4942031;29;20048;-70
2022/05/28 02:02:16;;;;;;;9.32;1.73;;;9.40;99.90;;;;;;4931572;29;20055;-70
2022/05/28 02:04:45;;;;;;;9.73;2.30;;;9.40;99.90;;;;;;4951317;28;20043;-70
2022/05/28 02:07:12;;;;;;;8.85;2.13;;;9.30;99.90;;;;;;5043916;28;20150;-70
2022/05/28 02:09:45;;;;;;;9.20;2.33;;;9.40;99.90;;;;;;5026816;28;20038;-70
2022/05/28 02:12:30;;;;;;;11.20;1.98;;;9.50;99.90;;;;;;5044285;28;20572;-70
2022/05/28 02:15:11;;;;;;;12.88;2.78;;;9.40;99.90;;;;;;5043370;28;20111;-70
2022/05/28 02:18:10;;;;;;;9.43;2.75;;;9.40;99.90;;;;;;5027323;28;20059;-70
2022/05/28 02:20:40;;;;;;;12.45;1.95;;;9.50;99.90;;;;;;5027244;28;20088;-70
2022/05/28 02:23:14;;;;;;;9.77;2.65;;;9.40;99.90;;;;;;5044606;28;20632;-70
2022/05/28 02:25:44;;;;;;;7.32;2.25;;;9.40;99.90;;;;;;5043326;28;20037;-70
2022/05/28 02:28:10;;;;;;;;;;;9.40;99.90;;;;;;5045229;28;20041;-70
2022/05/28 02:30:48;;;;;;;10.80;2.13;;;9.30;99.90;;;;;;5063290;28;19921;-70
2022/05/28 02:33:14;;;;;;;7.97;2.10;;;9.30;99.90;;;;;;5041643;28;20109;-70
2022/05/28 02:35:39;;;;;;;9.65;2.28;;;9.30;99.90;;;;;;5044938;28;20053;-70
2022/05/28 02:38:05;;;;;;;7.97;1.77;;;9.30;99.90;;;;;;5032317;28;20043;-70
2022/05/28 02:40:31;;;;;;;10.25;2.03;;;9.30;99.90;;;;;;5029230;28;20049;-70
2022/05/28 02:42:56;;;;;;;7.90;1.50;;;9.20;99.90;;;;;;5043868;28;20108;-70
2022/05/28 02:45:22;;;;;;;10.13;2.17;;;9.30;99.90;;;;;;5028220;28;20135;-70
2022/05/28 02:47:48;;;;;;;11.73;1.88;;;9.30;99.90;;;;;;5028612;28;20231;-70
2022/05/28 02:50:14;;;;;;;10.57;2.33;;;9.30;99.90;;;;;;5028024;28;20038;-70
2022/05/28 02:52:40;;;;;;;8.90;1.77;;;9.30;99.90;;;;;;5064555;28;20573;-70
2022/05/28 02:55:06;;;;;;;11.50;2.40;;;9.30;99.90;;;;;;5043817;28;20061;-70
2022/05/28 02:57:32;;;;;;;8.27;1.83;;;9.40;99.90;;;;;;5043176;28;20124;-70
2022/05/28 02:59:57;;;;;;;9.38;2.38;;;9.30;99.90;;;;;;5028167;28;20088;-70
2022/05/28 03:02:26;;;;;;;15.40;2.40;;;9.40;99.90;;;;;;5013944;28;20566;-70
2022/05/28 03:04:51;;;;;;;12.85;2.05;;;9.60;99.90;;;;;;5030712;28;20056;-70
2022/05/28 03:07:17;;;;;;;13.95;2.50;;;9.40;99.90;;;;;;5026361;28;20054;-70
2022/05/28 03:09:43;;;;;;;8.80;2.00;;;9.30;99.90;;;;;;5011838;28;20041;-70
2022/05/28 03:12:09;;;;;;;10.93;1.90;;;9.40;99.90;;;;;;5025803;28;20061;-70
2022/05/28 03:14:36;;;;;;;13.68;2.00;;;9.30;99.90;;;;;;5028031;28;20057;-70
2022/05/28 03:17:02;;;;;;;9.48;2.05;;;9.40;99.90;;;;;;5028194;28;20041;-70
2022/05/28 03:19:28;;;;;;;13.07;2.35;;;9.40;99.90;;;;;;5028031;28;20068;-70
2022/05/28 03:21:53;;;;;;;9.05;2.10;;;9.50;99.90;;;;;;5030408;28;20509;-70
2022/05/28 03:24:19;;;;;;;13.55;2.08;;;9.50;99.90;;;;;;5044798;28;20061;-70
2022/05/28 03:26:45;;;;;;;9.18;2.45;;;9.50;99.90;;;;;;5025770;28;20045;-70
2022/05/28 03:29:10;;;;;;;10.85;1.90;;;9.50;99.90;;;;;;5025628;28;20045;-70
2022/05/28 03:31:36;;;;;;;9.00;2.33;;;9.40;99.90;;;;;;5029279;28;20049;-70
2022/05/28 03:34:02;;;;;;;11.95;2.78;;;9.40;99.90;;;;;;5031988;28;20068;-70
2022/05/28 03:36:28;;;;;;;12.30;3.08;;;9.60;99.90;;;;;;5032253;28;20125;-70
2022/05/28 03:38:54;;;;;;;15.73;3.60;;;9.60;99.90;;;;;;5046919;28;20069;-70
2022/05/28 03:41:20;;;;;;;11.68;2.63;;;9.80;99.90;;;;;;5016897;28;20125;-70
2022/05/28 03:43:46;;;;;;;12.75;2.63;;;9.60;99.90;;;;;;5029809;28;20064;-70
2022/05/28 03:46:27;;;;;;;12.00;2.88;;;9.60;99.90;;;;;;5031694;28;20448;-70
2022/05/28 03:49:06;;;;;;;10.98;2.20;;;9.60;99.90;;;;;;5032386;28;20065;-70
2022/05/28 03:51:32;;;;;;;12.80;2.47;;;9.60;99.90;;;;;;5033089;28;20029;-70
2022/05/28 03:53:58;;;;;;;15.77;2.60;;;9.50;99.90;;;;;;5029925;28;20564;-70
2022/05/28 03:56:30;;;;;;;15.60;3.67;;;9.50;99.90;;;;;;5064024;28;20087;-70
2022/05/28 03:58:56;;;;;;;10.90;2.17;;;9.40;99.90;;;;;;5031933;28;20099;-70
2022/05/28 04:01:22;;;;;;;11.73;2.63;;;9.50;99.90;;;;;;5016613;28;20049;-70
2022/05/28 04:03:47;;;;;;;13.15;3.13;;;9.60;99.90;;;;;;5046557;28;20041;-70
2022/05/28 04:06:13;;;;;;;14.15;2.88;;;9.50;99.90;;;;;;5046508;28;20043;-70
2022/05/28 04:08:40;;;;;;;13.00;2.55;;;9.60;99.90;;;;;;5032268;28;20092;-70
2022/05/28 04:11:06;;;;;;;12.52;2.60;;;9.60;99.90;;;;;;5066708;28;20406;-70
2022/05/28 04:13:31;;;;;;;12.13;2.92;;;9.60;99.90;;;;;;5030107;28;20057;-70
2022/05/28 04:15:57;;;;;;;10.60;2.13;;;9.60;99.90;;;;;;5014133;28;20048;-70
2022/05/28 04:18:23;;;;;;;9.65;2.58;;;9.60;99.90;;;;;;5031749;28;20084;-70
2022/05/28 04:20:49;;;;;;;12.48;2.80;;;9.70;99.90;;;;;;5033805;28;20144;-70
2022/05/28 04:23:16;;;;;;;10.10;2.53;;;9.70;99.90;;;;;;5046672;28;20049;-70
2022/05/28 04:25:41;;;;;;;11.07;2.40;;;9.60;99.90;;;;;;5029516;28;20121;-70
2022/05/28 04:28:08;;;;;;;16.48;3.40;;;9.70;99.90;;;;;;5030408;28;20104;-70
2022/05/28 04:30:34;;;;;;;17.10;3.63;;;9.70;99.90;;;;;;5046165;28;20409;-70
2022/05/28 04:33:00;;;;;;;14.35;2.90;;;9.50;99.90;;;;;;5045275;28;20041;-70
2022/05/28 04:35:26;;;;;;;9.80;2.58;;;9.50;99.90;;;;;;5012483;28;20060;-70
2022/05/28 04:37:51;;;;;;;17.70;3.28;;;9.60;99.90;;;;;;5067493;28;20045;-70
2022/05/28 04:40:17;;;;;;;16.58;2.67;;;9.80;99.90;;;;;;5028216;28;20059;-70
2022/05/28 04:42:43;;;;;;;13.20;3.28;;;9.60;99.90;;;;;;5045135;28;20037;-70
2022/05/28 04:45:09;;;;;;;14.13;2.92;;;9.50;99.90;;;;;;5031989;28;20057;-70
2022/05/28 04:47:35;;;;;;;19.40;2.97;;;9.60;99.90;;;;;;5045055;28;20044;-70
2022/05/28 04:50:01;;;;;;;10.38;2.63;;;9.60;99.90;;;;;;5046988;28;20049;-70
2022/05/28 04:52:26;;;;;;;16.02;2.90;;;9.60;99.90;;;;;;5032531;28;20049;-70
2022/05/28 04:54:52;;;;;;;14.10;3.67;;;9.70;99.90;;;;;;5030593;28;20469;-70
2022/05/28 04:57:18;;;;;;;17.98;2.83;;;9.80;99.90;;;;;;5012316;28;20079;-70
2022/05/28 04:59:43;;;;;;;14.70;2.58;;;9.90;99.90;;;;;;5028356;28;20049;-70
2022/05/28 05:02:09;;;;;;;13.40;2.80;;;9.90;99.90;;;;;;5045409;28;20111;-70
2022/05/28 05:04:35;;;;;;;17.58;3.63;;;10.00;99.90;;;;;;5045647;28;20041;-70
2022/05/28 05:07:01;;;;;;;15.90;3.22;;;10.00;99.90;;;;;;5042636;28;20556;-70
2022/05/28 05:09:26;;;;;;;17.67;3.22;;;10.00;99.90;;;;;;5045461;28;20045;-70
2022/05/28 05:11:52;;;;;;;14.95;3.17;;;10.20;99.90;;;;;;5046662;28;20044;-70
2022/05/28 05:14:18;;;;;;;14.60;3.10;;;10.20;99.90;;;;;;5029192;28;20052;-70
2022/05/28 05:16:43;;;;;;;15.10;3.22;;;10.30;99.90;;;;;;5042106;28;20068;-70
2022/05/28 05:19:09;;;;;;;13.88;3.47;;;10.50;99.90;;;;;;5019873;28;20050;-68
2022/05/28 05:21:35;;;;;;;15.25;3.25;;;10.50;99.90;;;;;;5026642;28;20084;-69
2022/05/28 05:24:01;;;;;;;15.10;3.17;;;10.40;99.90;;;;;;5027792;28;20045;-69
2022/05/28 05:26:27;;;;;;;14.00;3.00;;;10.60;99.90;;;;;;5027660;28;20105;-69
2022/05/28 05:28:54;;;;;;;14.05;3.03;;;10.60;99.90;;;;;;5045215;28;20802;-68
2022/05/28 05:31:19;;;;;;;18.30;3.17;;;10.60;99.90;;;;;;5027255;28;20068;-68
2022/05/28 05:33:45;;;;;;;15.80;3.42;;;10.70;99.90;;;;;;5027293;28;20046;-68
2022/05/28 05:36:11;;;;;;;14.57;2.70;;;10.70;99.90;;;;;;5027533;28;20409;-68
2022/05/28 05:38:37;;;;;;;17.75;3.33;;;10.80;99.90;;;;;;5011623;28;20083;-68
2022/05/28 05:41:03;;;;;;;13.05;3.22;;;10.80;99.90;;;;;;5045509;28;20079;-68
2022/05/28 05:43:28;;;;;;;16.98;3.20;;;10.90;99.90;;;;;;5027775;28;20081;-68
2022/05/28 05:45:56;;;;;;;19.02;3.47;;;10.80;99.90;;;;;;5027730;28;20038;-69
2022/05/28 05:48:22;;;;;;;16.63;3.63;;;10.80;99.90;;;;;;5045498;28;20045;-69
2022/05/28 05:50:49;;;;;;;14.38;3.35;;;10.90;99.90;;;;;;5012423;28;20124;-69
2022/05/28 05:53:15;;;;;;;16.48;3.05;;;10.90;99.90;;;;;;5065810;28;20077;-69
2022/05/28 05:55:41;;;;;;;12.18;3.00;;;11.10;99.90;;;;;;5044767;28;20120;-69
2022/05/28 05:58:07;;;;;;;17.35;4.18;;;11.10;99.90;;;;;;5029026;28;20068;-69
2022/05/28 06:00:33;;;;;;;16.73;3.55;;;11.10;99.90;;;;;;5030217;28;20113;-69
2022/05/28 06:02:58;;;;;;;16.80;3.92;;;11.00;99.90;;;;;;5029020;28;20108;-69
2022/05/28 06:05:24;;;;;;;18.67;2.95;;;11.00;99.90;;;;;;5028125;28;20412;-69
2022/05/28 06:07:50;;;;;;;14.88;2.72;;;11.10;99.90;;;;;;5032028;28;20052;-69
2022/05/28 06:10:16;;;;;;;21.83;3.17;;;11.00;99.90;;;;;;5045108;28;20045;-69
2022/05/28 06:12:42;;;;;;;10.48;3.05;;;11.00;99.90;;;;;;5046247;28;20117;-69
2022/05/28 06:15:09;;;;;;;17.70;3.40;;;11.20;99.90;;;;;;5027029;28;20050;-69
2022/05/28 06:17:36;;;;;;;17.75;3.38;;;11.20;99.90;;;;;;5030895;28;20049;-69
2022/05/28 06:20:10;;;;;;;18.45;3.35;;;11.30;99.90;;;;;;5044859;28;20067;-69
2022/05/28 06:22:36;;;;;;;13.43;3.15;;;11.50;99.90;;;;;;5028012;28;20119;-68
2022/05/28 06:25:03;;;;;;;19.63;3.30;;;11.50;99.90;;;;;;5043603;28;20045;-68
2022/05/28 06:27:29;;;;;;;16.52;3.55;;;11.50;99.90;;;;;;5043846;28;20071;-69
2022/05/28 06:29:54;;;;;;;14.30;4.05;;;11.60;99.90;;;;;;5059119;28;20046;-69
2022/05/28 06:32:20;;;;;;;12.52;2.95;;;11.50;99.90;;;;;;5027886;28;20063;-69
2022/05/28 06:34:46;;;;;;;12.20;3.15;;;11.60;99.90;;;;;;5029656;28;20040;-69
2022/05/28 06:37:15;;;;;;;18.75;2.90;;;11.60;99.90;;;;;;5045892;28;20052;-69
2022/05/28 06:39:41;;;;;;;14.40;3.40;;;11.80;99.90;;;;;;5044115;28;20153;-69
2022/05/28 06:42:07;;;;;;;14.20;2.55;;;11.70;99.90;;;;;;5030515;28;20316;-69
2022/05/28 06:44:34;;;;;;;14.88;3.05;;;11.90;99.90;;;;;;5062290;28;20056;-68
2022/05/28 06:46:59;;;;;;;15.55;2.70;;;11.80;99.90;;;;;;5026685;28;20504;-69
2022/05/28 06:49:25;;;;;;;13.80;3.40;;;11.80;99.90;;;;;;5012466;28;20042;-69
2022/05/28 06:51:51;;;;;;;11.48;3.22;;;11.70;99.90;;;;;;5031930;28;20045;-69
2022/05/28 06:54:18;;;;;;;15.50;3.20;;;11.80;99.90;;;;;;5061317;28;20088;-69
2022/05/28 06:56:43;;;;;;;18.23;3.38;;;11.90;99.90;;;;;;5027820;28;20101;-69
2022/05/28 06:59:09;;;;;;;14.07;3.17;;;11.80;99.90;;;;;;5043008;28;20072;-67
2022/05/28 07:01:36;;;;;;;17.33;3.42;;;11.60;99.90;;;;;;5043479;28;20923;-68
2022/05/28 07:04:01;;;;;;;12.48;4.10;;;11.50;99.90;;;;;;5043096;28;20420;-69
2022/05/28 07:06:29;;;;;;;14.00;4.18;;;11.50;99.90;;;;;;5043384;28;20072;-69
2022/05/28 07:08:55;;;;;;;16.00;3.42;;;11.30;99.90;;;;;;5034387;28;20045;-70
2022/05/28 07:11:21;;;;;;;13.27;2.95;;;11.30;99.90;;;;;;5015792;28;20041;-68
2022/05/28 07:13:47;;;;;;;22.17;4.43;;;11.30;99.90;;;;;;5033813;28;20108;-68
2022/05/28 07:16:12;;;;;;;15.10;3.53;;;11.40;99.90;;;;;;5032335;28;20065;-67
2022/05/28 07:18:39;;;;;;;16.67;3.53;;;11.50;99.90;;;;;;5048983;28;20478;-68
2022/05/28 07:21:07;;;;;;;13.82;3.38;;;11.70;99.90;;;;;;5031490;28;20146;-68
2022/05/28 07:23:33;;;;;;;10.38;2.78;;;11.70;99.90;;;;;;5045522;28;20115;-68
2022/05/28 07:26:03;;;;;;;14.55;3.67;;;11.90;99.90;;;;;;5013141;28;20060;-67
2022/05/28 07:28:33;;;;;;;14.25;3.25;;;12.00;99.90;;;;;;5029468;28;20116;-68
2022/05/28 07:31:04;;;;;;;12.73;2.75;;;12.20;99.90;;;;;;5028726;28;20068;-68
2022/05/28 07:33:33;;;;;;;11.43;2.50;;;12.00;99.90;;;;;;5056388;28;20049;-68
2022/05/28 07:35:59;;;;;;;9.32;2.80;;;12.00;99.90;;;;;;5029313;28;20045;-68
2022/05/28 07:38:28;;;;;;;9.68;2.75;;;11.80;99.90;;;;;;5047060;28;20611;-69
2022/05/28 07:40:53;;;;;;;8.55;2.38;;;11.70;99.90;;;;;;5046680;28;20044;-68
2022/05/28 07:43:19;;;;;;;8.80;2.13;;;11.90;99.90;;;;;;5030547;28;20053;-68
2022/05/28 07:45:46;;;;;;;9.05;2.85;;;12.00;99.90;;;;;;5030103;28;20049;-68
2022/05/28 07:48:14;;;;;;;9.10;3.35;;;12.10;99.90;;;;;;5030098;28;20042;-68
2022/05/28 07:50:40;;;;;;;15.63;3.75;;;12.30;99.90;;;;;;5046802;28;20037;-69
2022/05/28 07:53:07;;;;;;;10.10;3.20;;;12.30;99.90;;;;;;5028622;28;20048;-68
2022/05/28 07:55:33;;;;;;;9.80;2.65;;;12.50;99.90;;;;;;5046369;28;20052;-68
2022/05/28 07:58:28;;;;;;;11.65;3.05;;;12.20;99.90;;;;;;5028719;28;20056;-69
2022/05/28 08:00:55;;;;;;;9.18;2.53;;;12.30;99.90;;;;;;5037266;28;20046;-69
2022/05/28 08:03:20;;;;;;;11.63;2.38;;;12.20;99.90;;;;;;5028847;28;20049;-68
2022/05/28 08:05:49;;;;;;;9.05;2.33;;;12.40;99.90;;;;;;5012203;28;20065;-72
2022/05/28 08:08:16;;;;;;;13.88;3.40;;;12.30;99.90;;;;;;5031706;28;20056;-71
2022/05/28 08:10:41;;;;;;;9.32;3.08;;;12.00;99.90;;;;;;5022544;28;20045;-71
2022/05/28 08:13:10;;;;;;;12.65;3.00;;;12.20;99.90;;;;;;5029875;28;20056;-71
2022/05/28 08:15:39;;;;;;;15.15;2.63;;;12.20;99.90;;;;;;5020902;28;20049;-71
2022/05/28 08:18:05;;;;;;;12.85;3.65;;;12.20;99.90;;;;;;5027987;28;20045;-71
2022/05/28 08:23:15;;;;;;;16.52;3.85;;;12.40;99.90;;;;;;5045795;28;20115;-71
2022/05/28 08:25:41;;;;;;;15.73;3.25;;;12.60;99.90;;;;;;5027685;28;20038;-71
2022/05/28 08:28:08;;;;;;;11.95;2.92;;;12.80;99.90;;;;;;5046186;28;20072;-71
2022/05/28 08:30:35;;;;;;;17.15;3.47;;;12.80;99.90;;;;;;5046427;28;20073;-71
2022/05/28 08:33:02;;;;;;;20.08;3.40;;;12.70;99.90;;;;;;5029578;28;20041;-72
2022/05/28 08:35:28;;;;;;;15.45;3.67;;;12.70;99.90;;;;;;5046974;28;20037;-68
2022/05/28 08:37:53;;;;;;;20.15;3.95;;;12.80;99.90;;;;;;5046412;28;20107;-73
2022/05/28 08:40:19;;;;;;;14.95;2.90;;;12.60;99.90;;;;;;5024126;28;20050;-68
2022/05/28 08:42:45;;;;;;;14.73;3.90;;;12.60;99.90;;;;;;5022157;28;20077;-68
2022/05/28 08:45:13;;;;;;;17.45;3.33;;;12.70;99.90;;;;;;5027598;28;20069;-68
2022/05/28 08:47:44;;;;;;;18.85;3.85;;;12.80;99.90;;;;;;5045241;28;20042;-69
2022/05/28 08:50:11;;;;;;;15.43;2.65;;;12.90;99.90;;;;;;5045413;28;20517;-67
2022/05/28 08:52:48;;;;;;;13.57;2.92;;;13.10;99.90;;;;;;5063657;28;20101;-68
2022/05/28 08:55:24;;;;;;;15.05;2.70;;;13.10;99.90;;;;;;5018810;28;20151;-68
2022/05/28 08:58:07;;;;;;;14.38;3.00;;;13.10;99.90;;;;;;5045217;28;20038;-68
2022/05/28 09:00:54;;;;;;;12.93;3.20;;;13.10;99.90;;;;;;5042732;28;20045;-69
2022/05/28 09:03:27;;;;;;;14.73;2.97;;;13.00;99.90;;;;;;5027337;28;20083;-68
2022/05/28 09:06:07;;;;;;;14.07;3.45;;;12.90;99.90;;;;;;5015512;28;20470;-69
2022/05/28 09:08:33;;;;;;;;;;;12.80;99.90;;;;;;5020287;28;20052;-71
2022/05/28 09:11:04;;;;;;;15.57;3.42;;;13.00;99.90;;;;;;5028156;28;19929;-72
2022/05/28 09:13:40;;;;;;;17.73;3.60;;;13.30;99.90;;;;;;5027779;28;20060;-72
2022/05/28 09:16:10;;;;;;;15.15;2.97;;;13.30;99.90;;;;;;5040909;28;20045;-72
2022/05/28 09:18:40;;;;;;;14.70;3.70;;;13.50;99.90;;;;;;5025088;28;20162;-72
2022/05/28 09:21:13;;;;;;;12.77;2.92;;;13.60;99.90;;;;;;5008013;28;20050;-72
2022/05/28 09:23:54;;;;;;;12.82;3.10;;;13.40;99.90;;;;;;5041395;28;20395;-72
2022/05/28 09:26:50;;;;;;;14.98;3.13;;;13.20;99.90;;;;;;5045062;28;20056;-72
2022/05/28 09:29:37;;;;;;;12.80;3.28;;;13.20;99.90;;;;;;5025512;28;20109;-72
2022/05/28 09:32:33;;;;;;;13.80;3.45;;;13.00;99.90;;;;;;5064602;28;20056;-72
2022/05/28 09:35:04;;;;;;;13.07;2.95;;;12.90;99.90;;;;;;5027169;28;20046;-72
2022/05/28 09:37:56;;;;;;;14.63;3.55;;;13.10;99.90;;;;;;5027995;28;20121;-72
2022/05/28 09:40:35;;;;;;;11.75;3.13;;;13.40;99.90;;;;;;5024887;28;20159;-72
2022/05/28 09:43:22;;;;;;;13.75;3.03;;;13.60;99.90;;;;;;5044958;28;20049;-72
2022/05/28 09:45:56;;;;;;;16.48;2.55;;;13.70;99.90;;;;;;5044921;28;20056;-72
2022/05/28 09:48:26;;;;;;;14.43;3.08;;;13.70;99.90;;;;;;5026118;28;20076;-72
2022/05/28 09:50:52;;;;;;;9.73;3.03;;;13.60;99.90;;;;;;5015604;28;20096;-72
2022/05/28 09:56:20;;;;;;;11.73;2.80;;;13.40;99.90;;;;;;5026400;28;20053;-72
2022/05/28 09:58:46;;;;;;;14.60;2.55;;;13.20;99.90;;;;;;5028114;28;20080;-72
2022/05/28 10:01:22;;;;;;;12.55;3.00;;;13.10;99.90;;;;;;5027731;28;20048;-72
2022/05/28 10:06:44;;;;;;;13.07;2.90;;;13.10;99.90;;;;;;5022179;28;20060;-72
2022/05/28 10:09:18;;;;;;;11.57;3.05;;;13.30;99.90;;;;;;5060333;28;20132;-72
2022/05/28 10:11:59;;;;;;;14.20;3.20;;;13.50;99.90;;;;;;5023977;28;20073;-72
2022/05/28 10:14:28;;;;;;;19.25;3.65;;;13.50;99.90;;;;;;5042251;28;20053;-72
2022/05/28 10:17:03;;;;;;;13.82;2.75;;;13.70;99.90;;;;;;5027415;28;20109;-72
2022/05/28 10:19:33;;;;;;;16.70;3.38;;;13.60;99.90;;;;;;5026616;28;20049;-72
2022/05/28 10:22:04;;;;;;;10.18;2.35;;;13.90;99.90;;;;;;5062782;28;20050;-72
2022/05/28 10:24:40;;;;;;;12.95;2.60;;;14.20;99.90;;;;;;5043580;28;20073;-72
2022/05/28 10:27:19;;;;;;;11.70;2.38;;;14.20;99.90;;;;;;5026728;28;20057;-72
2022/05/28 10:29:48;;;;;;;10.60;3.63;;;14.10;99.90;;;;;;5025075;28;20057;-72
2022/05/28 10:32:34;;;;;;;15.45;3.45;;;14.00;99.90;;;;;;5022670;28;20052;-72
2022/05/28 10:35:06;;;;;;;12.18;3.40;;;13.80;99.90;;;;;;5043928;28;20587;-72
2022/05/28 10:37:31;;;;;;;13.00;3.08;;;13.40;99.90;;;;;;5044421;28;20049;-72
2022/05/28 10:40:18;;;;;;;17.60;3.33;;;13.00;99.90;;;;;;5023850;28;20554;-72
2022/05/28 10:42:45;;;;;;;14.65;3.03;;;12.80;99.90;;;;;;5039650;28;20050;-72
2022/05/28 10:45:18;;;;;;;11.93;3.00;;;12.80;99.90;;;;;;5025450;28;20037;-72
2022/05/28 10:47:58;;;;;;;13.80;2.67;;;12.80;99.90;;;;;;5028038;28;20057;-72
2022/05/28 10:50:30;;;;;;;14.00;2.85;;;13.30;99.90;;;;;;5026152;28;20059;-72
2022/05/28 10:53:11;;;;;;;18.27;3.13;;;13.40;99.90;;;;;;5023045;28;20053;-72
2022/05/28 10:55:59;;;;;;;16.60;3.47;;;13.60;99.90;;;;;;5022838;28;20060;-72
2022/05/28 10:58:57;;;;;;;17.20;2.78;;;13.70;99.90;;;;;;5043494;28;20038;-72
2022/05/28 11:01:54;;;;;;;14.57;2.85;;;13.90;99.90;;;;;;5026112;28;20101;-72
2022/05/28 11:04:41;;;;;;;15.20;3.25;;;14.10;99.90;;;;;;5043995;28;20061;-72
2022/05/28 11:07:22;;;;;;;13.93;2.75;;;14.10;99.90;;;;;;5025578;28;20049;-72
2022/05/28 11:10:07;;;;;;;8.50;2.50;;;14.20;99.90;;;;;;5025541;28;20061;-72
2022/05/28 11:12:33;;;;;;;10.32;2.85;;;14.40;99.90;;;;;;5025911;28;20049;-72
2022/05/28 11:15:29;;;;;;;11.10;3.20;;;14.60;99.90;;;;;;5011077;28;20037;-72
2022/05/28 11:18:22;;;;;;;12.57;2.55;;;15.00;99.90;;;;;;5025848;28;20057;-72
2022/05/28 11:21:18;;;;;;;9.10;2.72;;;14.80;99.90;;;;;;5025008;28;20062;-72
2022/05/28 11:23:49;;;;;;;9.63;2.13;;;14.80;99.90;;;;;;4996812;28;20064;-72
2022/05/28 11:26:19;;;;;;;9.48;2.45;;;14.60;99.90;;;;;;5018535;28;20060;-72
2022/05/28 11:28:59;;;;;;;6.47;2.67;;;14.60;99.90;;;;;;5030839;28;20041;-72
2022/05/28 11:31:43;;;;;;;9.82;2.47;;;14.50;99.90;;;;;;5001589;28;20108;-72
2022/05/28 11:34:22;;;;;;;12.60;2.25;;;14.50;99.90;;;;;;5015183;28;20049;-72
2022/05/28 11:37:10;;;;;;;9.63;2.17;;;14.70;99.90;;;;;;5006973;28;20052;-72
2022/05/28 11:39:42;;;;;;;6.78;1.70;;;14.60;99.90;;;;;;5004726;28;20065;-72
2022/05/28 11:42:11;;;;;;;10.07;2.03;;;14.50;99.90;;;;;;5012995;28;20085;-72
2022/05/28 11:44:46;;;;;;;10.67;2.20;;;14.60;99.90;;;;;;5023337;28;20056;-72
2022/05/28 11:47:54;;;;;;;8.63;1.88;;;14.70;99.90;;;;;;5006412;28;20297;-72
2022/05/28 11:53:54;;;;;;;10.55;2.50;;;14.80;99.90;;;;;;5027702;28;20468;-72
2022/05/28 11:56:28;;;;;;;7.20;2.00;;;14.60;99.90;;;;;;5008379;28;20054;-73
2022/05/28 11:59:06;;;;;;;10.13;2.25;;;14.50;99.90;;;;;;5010810;28;20042;-72
2022/05/28 12:01:46;;;;;;;9.50;2.28;;;14.30;99.90;;;;;;5009367;28;20034;-71
2022/05/28 12:04:12;;;;;;;;;;;14.10;99.90;;;;;;5017763;28;20064;-68
2022/05/28 12:06:46;;;;;;;13.98;2.50;;;14.00;99.90;;;;;;5027901;28;19992;-69
2022/05/28 12:09:20;;;;;;;8.75;2.42;;;14.00;99.90;;;;;;5028970;28;20042;-70
2022/05/28 12:11:59;;;;;;;12.75;3.05;;;14.10;99.90;;;;;;5012281;28;20052;-70
2022/05/28 12:14:34;;;;;;;13.68;3.00;;;14.30;99.90;;;;;;4996060;28;20050;-70
2022/05/28 12:17:07;;;;;;;8.73;2.25;;;14.40;99.90;;;;;;5010698;28;20406;-69
2022/05/28 12:19:34;;;;;;;12.20;3.05;;;14.20;99.90;;;;;;5023982;28;20437;-72
2022/05/28 12:22:20;;;;;;;9.13;3.13;;;14.20;99.90;;;;;;5010043;28;20057;-72
2022/05/28 12:24:59;;;;;;;11.57;3.05;;;13.80;99.90;;;;;;5008795;28;20050;-71
2022/05/28 12:27:36;;;;;;;9.18;2.25;;;13.20;99.90;;;;;;4986016;28;20085;-72
2022/05/28 12:30:02;;;;;;;9.95;2.47;;;12.70;99.90;;;;;;5022620;28;20048;-72
2022/05/28 12:32:41;;;;;;;14.30;2.95;;;12.70;99.90;;;;;;5009416;28;20105;-71
2022/05/28 12:35:23;;;;;;;13.55;2.67;;;12.30;99.90;;;;;;5009574;28;20548;-72
2022/05/28 12:37:52;;;;;;;9.73;2.60;;;12.30;99.90;;;;;;5025575;28;20038;-72
2022/05/28 12:40:24;;;;;;;18.92;3.58;;;12.40;99.90;;;;;;5026675;28;20056;-72
2022/05/28 12:42:49;;;;;;;11.80;3.35;;;12.50;99.90;;;;;;5025542;28;20136;-72
2022/05/28 12:45:24;;;;;;;9.82;3.30;;;12.80;99.90;;;;;;5008017;28;20574;-72
2022/05/28 12:47:50;;;;;;;8.95;3.20;;;12.90;99.90;;;;;;5008107;28;20057;-72
2022/05/28 12:50:42;;;;;;;11.35;2.95;;;13.30;99.90;;;;;;5008125;28;20049;-72
2022/05/28 12:53:21;;;;;;;12.52;3.20;;;13.70;99.90;;;;;;5021138;28;20410;-72
2022/05/28 12:55:58;;;;;;;16.65;3.50;;;14.10;99.90;;;;;;4989501;28;20056;-72
2022/05/28 12:58:23;;;;;;;12.30;3.03;;;14.40;99.90;;;;;;5002021;28;20053;-72
2022/05/28 13:00:56;;;;;;;13.55;3.50;;;14.50;99.90;;;;;;5024139;28;20042;-72
2022/05/28 13:03:31;;;;;;;11.70;2.83;;;14.70;99.90;;;;;;5001380;28;20049;-72
2022/05/28 13:06:07;;;;;;;17.15;3.45;;;14.60;99.90;;;;;;5025897;28;20045;-72
2022/05/28 13:08:34;;;;;;;12.90;2.35;;;14.50;99.90;;;;;;5007264;28;20050;-72
2022/05/28 13:11:18;;;;;;;13.65;2.83;;;14.30;99.90;;;;;;5024896;28;20441;-72
2022/05/28 13:14:14;;;;;;;8.15;2.88;;;14.10;99.90;;;;;;5022585;28;20371;-72